Time;durP1;ratioP1;P1;durP2;ratioP2;P2;SDS_P1;SDS_P2;PMS_P1;PMS_P2;Temp;Humidity;BMP_temperature;BMP_pressure;BME280_temperature;BME280_humidity;BME280_pressure;Samples;Min_cycle;Max_cycle;Signal;HPM_P1;HPM_P2
2023/06/28 13:25:27;;;;;;;6.20;1.40;;;;;;;24.99;35.81;98479.53;105404;1282;59386;-40
2023/06/28 13:27:54;;;;;;;3.70;1.50;;;;;;;25.36;34.79;98476.31;106690;1264;60858;-40
2023/06/28 13:30:21;;;;;;;3.10;1.30;;;;;;;25.68;33.64;98478.73;106714;1264;74400;-40
2023/06/28 13:32:49;;;;;;;3.20;1.60;;;;;;;25.78;33.13;98474.02;106729;1267;68261;-40
2023/06/28 13:35:16;;;;;;;4.70;1.50;;;;;;;25.71;32.78;98470.67;106762;1266;72384;-40
2023/06/28 13:37:45;;;;;;;3.50;1.60;;;;;;;25.43;33.72;98468.48;106843;1264;60357;-40
2023/06/28 13:40:12;;;;;;;3.00;1.40;;;;;;;25.11;34.75;98472.41;106878;1264;60434;-40
2023/06/28 13:42:39;;;;;;;3.90;1.70;;;;;;;24.90;35.14;98476.54;106861;1264;74470;-40
2023/06/28 13:45:07;;;;;;;2.90;1.30;;;;;;;24.76;35.38;98476.25;106991;1263;68213;-40
2023/06/28 13:47:34;;;;;;;4.00;1.70;;;;;;;24.63;36.39;98477.90;106915;1261;71377;-40
2023/06/28 13:50:01;;;;;;;4.30;1.50;;;;;;;24.56;37.14;98468.64;106861;1261;60678;-40
2023/06/28 13:52:28;;;;;;;2.60;1.40;;;;;;;24.56;37.59;98472.61;106860;1261;60484;-40
2023/06/28 13:54:55;;;;;;;2.60;1.40;;;;;;;24.56;36.55;98474.95;106858;1261;74473;-40
2023/06/28 13:57:23;;;;;;;3.00;1.50;;;;;;;24.47;36.45;98479.40;106783;1261;67917;-40
2023/06/28 13:59:49;;;;;;;1.80;1.20;;;;;;;24.36;36.44;98479.44;106807;1261;73067;-40
2023/06/28 14:02:17;;;;;;;3.30;1.50;;;;;;;24.21;37.20;98472.42;106826;1265;60099;-39
2023/06/28 14:04:44;;;;;;;3.60;1.50;;;;;;;24.05;37.64;98473.48;106774;1265;62156;-40
2023/06/28 14:07:10;;;;;;;2.40;1.50;;;;;;;23.93;37.73;98477.70;106598;1262;176447;-40
2023/06/28 14:10:50;;;;;;;4.30;2.00;;;;;;;23.77;37.38;98468.25;103961;1292;600940;-38
2023/06/28 14:13:17;;;;;;;2.40;1.50;;;;;;;23.62;38.48;98471.84;106588;1267;60050;-38
2023/06/28 14:15:48;;;;;;;2.40;1.30;;;;;;;23.54;38.57;98470.08;106606;1269;59825;-40
2023/06/28 14:18:16;;;;;;;3.60;1.60;;;;;;;23.52;38.63;98476.99;106418;1267;72265;-38
2023/06/28 14:20:44;;;;;;;6.40;1.70;;;;;;;23.49;38.29;98475.15;106587;1269;67535;-39
2023/06/28 14:23:12;;;;;;;8.70;1.90;;;;;;;23.43;39.00;98481.08;106322;1269;72361;-39
2023/06/28 14:25:41;;;;;;;2.80;1.70;;;;;;;23.38;38.96;98478.34;106343;1267;329728;-39
2023/06/28 14:28:11;;;;;;;6.50;1.50;;;;;;;23.41;39.36;98480.55;106613;1266;60223;-40
2023/06/28 14:30:39;;;;;;;2.70;1.50;;;;;;;23.48;38.99;98473.36;106672;1267;72710;-40
2023/06/28 14:33:08;;;;;;;4.40;1.50;;;;;;;23.51;38.39;98474.04;106603;1266;66695;-39
2023/06/28 14:35:36;;;;;;;3.70;1.60;;;;;;;23.42;38.17;98479.90;107010;1261;71487;-38
2023/06/28 14:38:05;;;;;;;4.50;1.80;;;;;;;23.20;38.21;98479.01;106827;1263;60208;-38
2023/06/28 14:40:33;;;;;;;3.80;1.50;;;;;;;23.00;39.12;98480.09;106854;1262;59672;-39
2023/06/28 14:43:00;;;;;;;5.80;1.80;;;;;;;22.89;39.97;98479.70;106826;1264;73073;-39
2023/06/28 14:45:29;;;;;;;2.80;1.60;;;;;;;22.83;39.94;98479.14;106852;1264;67797;-38
2023/06/28 14:47:57;;;;;;;3.90;1.50;;;;;;;22.75;39.73;98478.83;106798;1263;74823;-38
2023/06/28 14:50:25;;;;;;;3.30;1.60;;;;;;;22.67;39.92;98481.69;106818;1262;60340;-39
2023/06/28 14:52:53;;;;;;;3.60;1.50;;;;;;;22.62;39.59;98477.13;106821;1262;60141;-40
2023/06/28 14:55:21;;;;;;;6.10;1.50;;;;;;;22.60;38.56;98475.52;106865;1264;72872;-40
2023/06/28 14:57:49;;;;;;;3.90;1.40;;;;;;;22.58;38.30;98474.55;106855;1263;66278;-38
2023/06/28 15:00:17;;;;;;;4.10;1.60;;;;;;;22.51;38.05;98479.56;106848;1263;71509;-38
2023/06/28 15:02:44;;;;;;;2.90;1.40;;;;;;;22.43;38.42;98481.25;106862;1262;60062;-38
2023/06/28 15:05:12;;;;;;;2.80;1.40;;;;;;;22.32;38.41;98481.24;106867;1263;59749;-38
2023/06/28 15:07:40;;;;;;;3.70;1.60;;;;;;;22.24;38.23;98473.66;106870;1262;73070;-38
2023/06/28 15:10:09;;;;;;;6.20;1.40;;;;;;;22.19;39.44;98472.89;106834;1266;66393;-38
2023/06/28 15:12:36;;;;;;;2.60;1.40;;;;;;;22.22;39.62;98473.08;106899;1263;71563;-38
2023/06/28 15:15:04;;;;;;;4.50;1.80;;;;;;;22.25;39.19;98473.66;106864;1262;59630;-38
2023/06/28 15:17:32;;;;;;;6.50;1.60;;;;;;;22.26;39.14;98474.89;106895;1262;59602;-38
2023/06/28 15:20:00;;;;;;;4.60;1.70;;;;;;;22.26;39.20;98471.52;106829;1262;73071;-38
2023/06/28 15:22:28;;;;;;;8.30;1.60;;;;;;;22.25;39.08;98468.48;106840;1266;67263;-38
2023/06/28 15:24:55;;;;;;;2.40;1.40;;;;;;;22.20;38.89;98471.57;106850;1263;72674;-38
2023/06/28 15:27:23;;;;;;;3.10;1.70;;;;;;;22.08;38.98;98469.16;106876;1267;61025;-38
2023/06/28 15:29:51;;;;;;;3.40;1.70;;;;;;;21.91;39.76;98476.17;106723;1263;60043;-38
2023/06/28 15:32:18;;;;;;;7.30;1.80;;;;;;;21.75;39.91;98478.30;106858;1266;74062;-38
2023/06/28 15:34:46;;;;;;;5.10;1.40;;;;;;;21.60;40.79;98475.45;106825;1263;67613;-38
2023/06/28 15:37:14;;;;;;;2.30;1.50;;;;;;;21.44;41.28;98484.49;106850;1263;72741;-38
2023/06/28 15:39:41;;;;;;;6.30;1.90;;;;;;;21.28;42.61;98504.20;106819;1263;59615;-37
2023/06/28 15:42:09;;;;;;;5.90;1.80;;;;;;;21.03;43.50;98508.17;106824;1263;60121;-38
2023/06/28 15:44:36;;;;;;;3.50;1.70;;;;;;;20.78;46.20;98506.12;107205;1256;73081;-38
2023/06/28 15:47:04;;;;;;;6.80;1.70;;;;;;;20.52;47.46;98499.50;107238;1256;66311;-38
2023/06/28 15:49:32;;;;;;;3.90;1.70;;;;;;;20.25;48.74;98500.77;107190;1261;71401;-38
2023/06/28 15:52:00;;;;;;;10.60;1.80;;;;;;;20.06;49.12;98496.11;107457;1253;60096;-38
2023/06/28 15:54:27;;;;;;;6.00;1.80;;;;;;;19.94;49.61;98490.70;107460;1253;59691;-38
2023/06/28 15:56:55;;;;;;;7.00;1.80;;;;;;;19.88;50.68;98488.41;107435;1253;73117;-38
2023/06/28 15:59:23;;;;;;;4.30;1.60;;;;;;;19.90;51.61;98487.39;107417;1253;66600;-38
2023/06/28 16:01:50;;;;;;;3.60;1.40;;;;;;;19.99;50.96;98482.14;107468;1253;70932;-38
2023/06/28 16:04:18;;;;;;;3.60;1.70;;;;;;;20.10;49.79;98481.62;107433;1253;59691;-38
2023/06/28 16:06:45;;;;;;;3.40;1.80;;;;;;;20.19;49.34;98479.43;107483;1253;60056;-38
2023/06/28 16:09:13;;;;;;;3.10;1.70;;;;;;;20.28;48.64;98474.50;107402;1253;73181;-38
2023/06/28 16:11:41;;;;;;;2.10;1.30;;;;;;;20.37;48.07;98472.61;107419;1253;67145;-38
2023/06/28 16:14:08;;;;;;;4.60;1.60;;;;;;;20.46;46.61;98471.45;107490;1254;71739;-38
2023/06/28 16:16:36;;;;;;;2.80;1.40;;;;;;;20.52;45.82;98477.43;107533;1254;60088;-38
2023/06/28 16:19:04;;;;;;;3.80;1.50;;;;;;;20.55;45.53;98472.55;107484;1257;59504;-38
2023/06/28 16:21:31;;;;;;;3.90;1.60;;;;;;;20.56;45.90;98474.62;107507;1253;73123;-38
2023/06/28 16:23:59;;;;;;;2.80;1.60;;;;;;;20.57;46.15;98471.38;107547;1253;67559;-38
2023/06/28 16:26:27;;;;;;;4.70;1.80;;;;;;;20.57;46.13;98470.25;107505;1254;72700;-38
2023/06/28 16:28:55;;;;;;;2.80;1.80;;;;;;;20.59;46.22;98471.56;107404;1257;60129;-38
2023/06/28 16:31:23;;;;;;;2.10;1.50;;;;;;;20.59;45.57;98468.38;107523;1253;60037;-38
2023/06/28 16:33:50;;;;;;;2.70;1.30;;;;;;;20.61;46.20;98471.14;107563;1254;71784;-38
2023/06/28 16:36:18;;;;;;;4.90;1.60;;;;;;;20.63;45.01;98469.56;107543;1254;67527;-38
2023/06/28 16:38:46;;;;;;;3.90;1.40;;;;;;;20.64;44.83;98475.36;107424;1254;72680;-39
2023/06/28 16:41:18;;;;;;;2.40;1.30;;;;;;;20.65;44.73;98473.36;107414;1254;60109;-39
2023/06/28 16:43:45;;;;;;;2.90;1.20;;;;;;;20.65;44.34;98468.10;107253;1253;60126;-39
2023/06/28 16:46:13;;;;;;;3.30;1.50;;;;;;;20.64;43.35;98470.95;107344;1253;73097;-39
2023/06/28 16:48:41;;;;;;;3.40;1.50;;;;;;;20.65;43.55;98470.61;107453;1253;67543;-39
2023/06/28 16:51:09;;;;;;;3.50;1.40;;;;;;;20.65;44.13;98473.29;107456;1253;71721;-39
2023/06/28 16:53:37;;;;;;;2.70;1.40;;;;;;;20.65;44.09;98472.33;107314;1253;60027;-38
2023/06/28 16:56:05;;;;;;;4.00;1.60;;;;;;;20.63;44.56;98468.64;107435;1253;60118;-39
2023/06/28 16:58:33;;;;;;;3.30;1.30;;;;;;;20.60;44.22;98469.60;107380;1253;73012;-39
2023/06/28 17:01:00;;;;;;;4.40;1.50;;;;;;;20.56;44.58;98468.02;107462;1253;66566;-39
2023/06/28 17:03:28;;;;;;;3.90;1.70;;;;;;;20.52;44.73;98469.45;107386;1258;72754;-39
2023/06/28 17:05:57;;;;;;;2.80;1.40;;;;;;;20.45;45.17;98467.53;107345;1253;60071;-38
2023/06/28 17:08:25;;;;;;;4.30;1.70;;;;;;;20.36;45.44;98465.02;107394;1253;59516;-39
2023/06/28 17:10:52;;;;;;;5.90;2.10;;;;;;;20.26;46.08;98468.02;107485;1254;72645;-39
2023/06/28 17:13:20;;;;;;;5.20;2.30;;;;;;;20.15;46.30;98468.46;107498;1253;67548;-39
2023/06/28 17:15:48;;;;;;;5.20;2.30;;;;;;;20.05;46.96;98467.34;107452;1253;72733;-39
2023/06/28 17:18:16;;;;;;;8.30;2.40;;;;;;;19.95;47.44;98463.87;107439;1253;60590;-39
2023/06/28 17:20:44;;;;;;;4.90;2.30;;;;;;;19.88;47.81;98464.73;107527;1253;60034;-39
2023/06/28 17:23:11;;;;;;;5.40;2.70;;;;;;;19.82;48.30;98464.70;107375;1253;73083;-39
2023/06/28 17:25:40;;;;;;;7.50;3.20;;;;;;;19.77;48.39;98462.19;107247;1256;66641;-39
2023/06/28 17:28:08;;;;;;;10.10;3.30;;;;;;;19.73;48.49;98466.19;107386;1255;72709;-39
2023/06/28 17:30:41;;;;;;;12.30;4.20;;;;;;;19.68;48.67;98465.48;107388;1254;59622;-39
2023/06/28 17:33:17;;;;;;;11.90;3.30;;;;;;;19.62;48.97;98465.52;107165;1254;60277;-39
2023/06/28 17:35:44;;;;;;;5.20;2.10;;;;;;;19.57;49.53;98468.66;107185;1253;73143;-39
2023/06/28 17:38:12;;;;;;;3.00;1.90;;;;;;;19.52;49.23;98475.95;107145;1253;66662;-39
2023/06/28 17:40:40;;;;;;;3.90;1.90;;;;;;;19.47;49.53;98480.34;107117;1253;72699;-39
2023/06/28 17:43:09;;;;;;;4.40;1.60;;;;;;;19.42;48.88;98478.45;107204;1255;59610;-39
2023/06/28 17:45:36;;;;;;;2.80;1.50;;;;;;;19.34;47.68;98480.80;107299;1259;59759;-39
2023/06/28 17:48:04;;;;;;;7.10;1.80;;;;;;;19.29;47.34;98483.86;107452;1254;71754;-39
2023/06/28 17:50:33;;;;;;;4.50;1.50;;;;;;;19.25;47.30;98478.58;107517;1254;67895;-39
2023/06/28 17:53:00;;;;;;;5.10;1.50;;;;;;;19.21;47.42;98476.11;107390;1253;71399;-39
2023/06/28 17:55:28;;;;;;;7.00;1.80;;;;;;;19.17;47.53;98479.60;107360;1253;60070;-39
2023/06/28 17:57:56;;;;;;;6.20;1.80;;;;;;;19.11;47.35;98480.96;107370;1253;60015;-39
2023/06/28 18:00:24;;;;;;;6.50;1.40;;;;;;;19.04;47.40;98487.73;107376;1259;71796;-39
2023/06/28 18:02:52;;;;;;;4.60;1.50;;;;;;;19.00;47.91;98493.68;107404;1253;67619;-39
2023/06/28 18:05:19;;;;;;;3.10;1.30;;;;;;;18.94;48.13;98495.02;107336;1253;72700;-39
2023/06/28 18:07:47;;;;;;;4.40;1.60;;;;;;;18.87;48.27;98498.52;107321;1253;60231;-38
2023/06/28 18:10:15;;;;;;;5.50;1.30;;;;;;;18.81;48.68;98503.65;107357;1254;60034;-39
2023/06/28 18:12:42;;;;;;;6.00;1.30;;;;;;;18.75;49.13;98505.92;107346;1253;73107;-39
2023/06/28 18:15:10;;;;;;;6.40;1.80;;;;;;;18.70;49.73;98505.13;107401;1259;68441;-39
2023/06/28 18:17:38;;;;;;;4.50;1.50;;;;;;;18.67;49.91;98510.53;107519;1254;72648;-39
2023/06/28 18:20:07;;;;;;;3.50;1.70;;;;;;;18.64;50.26;98512.64;107405;1254;60428;-39
2023/06/28 18:22:34;;;;;;;5.50;1.80;;;;;;;18.60;50.48;98517.52;107640;1253;60430;-39
2023/06/28 18:25:02;;;;;;;7.30;1.40;;;;;;;18.56;50.74;98518.35;107442;1253;74307;-39
2023/06/28 18:27:30;;;;;;;3.30;1.60;;;;;;;18.52;51.24;98525.49;107462;1254;66380;-39
2023/06/28 18:29:57;;;;;;;4.80;1.70;;;;;;;18.46;51.41;98522.42;107421;1254;72657;-39
2023/06/28 18:32:25;;;;;;;4.90;1.70;;;;;;;18.44;51.67;98529.47;107443;1253;60369;-39
2023/06/28 18:34:53;;;;;;;4.80;1.70;;;;;;;18.37;52.02;98533.58;107445;1253;60299;-38
2023/06/28 18:37:21;;;;;;;5.10;2.20;;;;;;;18.29;52.54;98530.25;107423;1253;74328;-39
2023/06/28 18:39:49;;;;;;;6.10;1.40;;;;;;;18.23;52.88;98534.32;107468;1259;66418;-40
2023/06/28 18:42:16;;;;;;;5.50;1.90;;;;;;;18.16;53.24;98529.17;107481;1254;71387;-39
2023/06/28 18:44:44;;;;;;;4.70;1.70;;;;;;;18.10;53.41;98530.81;107469;1254;60426;-39
2023/06/28 18:47:12;;;;;;;4.90;1.60;;;;;;;18.02;53.45;98534.23;107421;1253;60326;-39
2023/06/28 18:49:39;;;;;;;3.10;2.00;;;;;;;17.94;54.16;98530.34;107392;1259;72957;-39
2023/06/28 18:52:07;;;;;;;3.00;1.20;;;;;;;17.88;54.43;98530.23;107540;1253;66783;-39
2023/06/28 18:54:35;;;;;;;3.70;1.70;;;;;;;17.82;54.82;98531.80;107413;1254;73217;-39
2023/06/28 18:57:03;;;;;;;4.80;1.80;;;;;;;17.78;55.30;98532.04;107364;1253;60578;-39
2023/06/28 18:59:30;;;;;;;5.30;1.60;;;;;;;17.73;55.58;98531.36;107333;1259;60400;-39
2023/06/28 19:01:58;;;;;;;7.20;1.80;;;;;;;17.68;55.95;98531.73;107447;1253;73356;-38
2023/06/28 19:04:26;;;;;;;6.10;1.80;;;;;;;17.64;56.21;98529.02;107430;1253;67583;-38
2023/06/28 19:06:53;;;;;;;3.00;1.60;;;;;;;17.61;56.43;98523.53;107389;1253;72683;-38
2023/06/28 19:09:21;;;;;;;7.10;1.90;;;;;;;17.58;56.46;98524.90;107283;1253;60465;-39
2023/06/28 19:11:48;;;;;;;4.70;1.90;;;;;;;17.54;56.80;98525.60;107379;1253;60265;-39
2023/06/28 19:14:16;;;;;;;3.80;1.90;;;;;;;17.49;56.89;98521.48;107448;1254;72656;-38
2023/06/28 19:16:44;;;;;;;4.30;1.70;;;;;;;17.44;57.07;98520.89;107388;1253;66440;-38
2023/06/28 19:19:12;;;;;;;5.70;1.60;;;;;;;17.37;57.15;98518.33;107344;1254;72745;-38
2023/06/28 19:21:42;;;;;;;6.00;1.60;;;;;;;17.30;57.26;98517.91;107297;1254;60403;-41
2023/06/28 19:24:15;;;;;;;4.90;1.40;;;;;;;17.24;57.19;98513.20;107343;1253;61274;-41
2023/06/28 19:26:44;;;;;;;4.60;1.80;;;;;;;17.18;57.31;98517.37;107385;1253;74003;-40
2023/06/28 19:29:16;;;;;;;5.80;1.70;;;;;;;17.11;57.56;98519.89;107331;1253;70193;-39
2023/06/28 20:01:32;;;;;;;2.30;1.40;;;;;;;16.34;58.98;98514.40;107425;1254;60521;-39
2023/06/28 20:03:59;;;;;;;7.80;1.70;;;;;;;16.32;59.15;98510.21;107454;1253;60479;-39
2023/06/28 20:06:27;;;;;;;3.80;1.40;;;;;;;16.35;59.41;98504.52;107443;1253;72660;-39
2023/06/28 20:09:08;;;;;;;6.30;1.70;;;;;;;16.39;59.48;98506.56;107345;1253;67895;-39
2023/06/28 20:11:36;;;;;;;2.80;1.30;;;;;;;16.46;59.46;98506.83;107216;1256;72887;-39
2023/06/28 20:14:04;;;;;;;6.30;1.50;;;;;;;16.57;59.50;98509.21;107357;1259;60581;-39
2023/06/28 20:16:32;;;;;;;4.10;1.30;;;;;;;16.63;59.53;98502.09;107419;1253;60371;-40
2023/06/28 20:18:59;;;;;;;4.40;1.70;;;;;;;16.66;59.32;98501.95;107350;1254;73883;-39
2023/06/28 20:21:27;;;;;;;2.80;1.50;;;;;;;16.69;59.24;98502.50;107367;1253;66433;-39
2023/06/28 20:23:55;;;;;;;3.70;1.40;;;;;;;16.71;59.01;98504.81;107344;1253;72675;-39
2023/06/28 20:26:23;;;;;;;3.40;1.70;;;;;;;16.72;58.45;98499.55;107419;1253;60397;-40
2023/06/28 20:28:52;;;;;;;2.60;1.40;;;;;;;16.72;58.78;98503.61;107488;1253;60325;-39
2023/06/28 20:31:19;;;;;;;3.50;1.40;;;;;;;16.72;58.44;98505.56;107477;1253;73890;-40
2023/06/28 20:33:48;;;;;;;3.70;1.60;;;;;;;16.73;58.78;98504.23;107371;1253;66831;-40
2023/06/28 20:36:16;;;;;;;2.50;1.30;;;;;;;16.74;58.87;98506.40;107331;1259;72679;-39
2023/06/28 20:38:46;;;;;;;4.40;1.40;;;;;;;16.75;59.00;98503.95;107457;1253;60374;-39
2023/06/28 20:41:14;;;;;;;4.30;1.50;;;;;;;16.75;58.96;98507.63;107359;1254;60036;-39
2023/06/28 20:43:43;;;;;;;4.90;1.60;;;;;;;16.74;58.89;98503.60;107355;1253;72557;-39
2023/06/28 20:46:11;;;;;;;3.80;1.50;;;;;;;16.72;59.13;98502.20;107415;1254;67683;-40
2023/06/28 20:48:38;;;;;;;2.50;1.30;;;;;;;16.70;59.15;98500.85;107350;1254;72736;-39
2023/06/28 20:51:10;;;;;;;3.30;1.70;;;;;;;16.68;59.20;98497.20;107350;1257;61759;-39
2023/06/28 20:53:37;;;;;;;4.00;1.40;;;;;;;16.69;59.34;98492.35;107369;1253;59683;-39
2023/06/28 20:56:05;;;;;;;2.70;1.40;;;;;;;16.74;59.18;98495.36;107341;1253;74135;-39
2023/06/28 20:58:33;;;;;;;2.10;1.30;;;;;;;16.75;59.06;98491.76;107456;1259;67565;-39
2023/06/28 21:01:02;;;;;;;4.50;1.60;;;;;;;16.74;59.11;98489.49;107334;1253;72696;-39
2023/06/28 21:03:31;;;;;;;4.30;1.50;;;;;;;16.75;59.21;98485.81;107335;1253;60411;-39
2023/06/28 21:05:59;;;;;;;3.40;1.60;;;;;;;16.74;59.28;98487.39;107303;1254;60293;-39
2023/06/28 21:08:27;;;;;;;4.50;1.60;;;;;;;16.75;59.35;98488.09;107373;1253;72714;-39
2023/06/28 21:10:54;;;;;;;5.10;1.70;;;;;;;16.73;59.10;98487.49;107343;1253;68145;-39
2023/06/28 21:13:22;;;;;;;5.10;1.60;;;;;;;16.70;59.37;98486.45;107348;1253;70811;-39
2023/06/28 21:15:49;;;;;;;4.10;1.30;;;;;;;16.67;59.52;98483.77;107257;1257;60513;-39
2023/06/28 21:18:17;;;;;;;3.20;1.50;;;;;;;16.65;59.94;98484.05;107309;1254;60291;-39
2023/06/28 21:20:45;;;;;;;3.70;1.60;;;;;;;16.62;60.12;98485.83;107339;1254;72705;-39
2023/06/28 21:23:13;;;;;;;2.70;1.60;;;;;;;16.59;60.26;98484.57;107306;1257;67876;-39
2023/06/28 21:25:40;;;;;;;4.80;1.80;;;;;;;16.58;60.44;98482.85;107297;1256;72686;-39
2023/06/28 21:28:09;;;;;;;2.20;1.20;;;;;;;16.61;60.24;98473.17;107355;1256;60468;-39
2023/06/28 21:30:37;;;;;;;3.70;1.60;;;;;;;16.63;60.22;98476.43;107412;1253;60508;-39
2023/06/28 21:33:05;;;;;;;5.90;1.60;;;;;;;16.62;60.18;98476.75;107464;1254;73908;-39
2023/06/28 21:35:34;;;;;;;5.60;1.70;;;;;;;16.60;60.13;98471.71;107269;1259;67559;-39
2023/06/28 21:38:01;;;;;;;3.20;1.50;;;;;;;16.58;60.13;98471.90;107339;1254;72660;-39
2023/06/28 21:40:29;;;;;;;5.10;1.60;;;;;;;16.56;60.46;98471.52;107219;1255;60388;-39
2023/06/28 21:42:57;;;;;;;2.70;1.50;;;;;;;16.55;60.64;98473.90;107418;1259;59694;-39
2023/06/28 21:45:24;;;;;;;2.70;1.30;;;;;;;16.52;60.77;98467.91;107455;1254;73884;-39
2023/06/28 21:47:52;;;;;;;2.60;1.40;;;;;;;16.50;60.68;98471.09;107318;1253;65604;-38
2023/06/28 21:50:20;;;;;;;4.40;1.40;;;;;;;16.49;60.78;98471.12;107328;1254;72699;-39
2023/06/28 21:52:48;;;;;;;2.10;1.30;;;;;;;16.49;60.52;98470.88;107284;1257;62215;-39
2023/06/28 21:55:15;;;;;;;8.20;1.40;;;;;;;16.52;60.58;98465.83;107447;1253;60668;-39
2023/06/28 21:57:43;;;;;;;2.60;1.40;;;;;;;16.54;60.39;98460.48;107406;1253;72556;-39
2023/06/28 22:00:21;;;;;;;2.80;1.50;;;;;;;16.53;60.56;98463.15;107360;1254;67643;-39
2023/06/28 22:02:49;;;;;;;3.40;1.30;;;;;;;16.52;60.37;98465.44;107547;1254;70982;-39
2023/06/28 22:05:16;;;;;;;2.80;1.20;;;;;;;16.49;59.91;98464.16;107474;1254;60441;-39
2023/06/28 22:07:44;;;;;;;5.70;1.50;;;;;;;16.48;60.20;98463.09;107496;1253;60382;-39
2023/06/28 22:10:12;;;;;;;3.50;1.50;;;;;;;16.45;59.95;98465.02;107369;1254;74018;-40
2023/06/28 22:12:40;;;;;;;3.70;1.40;;;;;;;16.43;59.93;98461.70;107501;1259;67918;-39
2023/06/28 22:15:08;;;;;;;4.20;1.30;;;;;;;16.42;60.11;98458.27;107346;1254;72687;-39
2023/06/28 22:17:36;;;;;;;2.20;1.40;;;;;;;16.41;60.15;98462.13;107321;1254;60414;-39
2023/06/28 22:20:06;;;;;;;3.50;1.30;;;;;;;16.38;60.05;98453.27;107385;1253;60306;-39
2023/06/28 22:22:34;;;;;;;3.10;1.20;;;;;;;16.38;60.22;98451.31;107417;1259;73855;-39
2023/06/28 22:25:02;;;;;;;2.00;1.20;;;;;;;16.41;60.14;98450.63;107374;1254;67703;-39
2023/06/28 22:27:30;;;;;;;4.30;1.50;;;;;;;16.42;60.12;98446.87;107362;1257;71416;-38
2023/06/28 22:29:57;;;;;;;2.20;1.30;;;;;;;16.41;60.02;98448.69;107320;1257;60409;-39
2023/06/28 22:32:25;;;;;;;3.00;1.20;;;;;;;16.39;60.21;98450.06;107505;1254;60077;-39
2023/06/28 22:34:54;;;;;;;2.40;1.20;;;;;;;16.35;60.10;98448.66;107343;1254;73848;-39
2023/06/28 22:37:21;;;;;;;1.70;1.10;;;;;;;16.32;60.51;98447.36;107460;1253;66607;-39
2023/06/28 22:39:49;;;;;;;2.80;1.40;;;;;;;16.30;60.61;98447.81;107331;1253;72690;-39
2023/06/28 22:42:16;;;;;;;3.80;1.30;;;;;;;16.29;61.03;98445.08;107605;1254;60425;-39
2023/06/28 22:44:44;;;;;;;2.90;1.40;;;;;;;16.32;60.99;98447.54;107402;1254;59663;-40
2023/06/28 22:47:12;;;;;;;2.80;1.40;;;;;;;16.33;61.08;98445.79;107315;1254;73867;-40
2023/06/28 22:49:41;;;;;;;6.70;1.20;;;;;;;16.32;61.40;98445.48;107331;1259;66464;-40
2023/06/28 22:52:09;;;;;;;2.70;1.60;;;;;;;16.30;61.65;98442.02;107333;1254;72647;-40
2023/06/28 22:54:36;;;;;;;3.60;1.50;;;;;;;16.30;61.81;98438.75;107284;1254;60738;-40
2023/06/28 22:57:04;;;;;;;2.90;1.20;;;;;;;16.27;62.02;98440.73;107314;1254;60406;-40
2023/06/28 22:59:32;;;;;;;4.60;1.30;;;;;;;16.22;62.47;98440.05;107459;1259;71684;-40
2023/06/28 23:01:59;;;;;;;4.00;1.10;;;;;;;16.17;62.64;98437.20;107436;1253;66446;-40
2023/06/28 23:04:27;;;;;;;2.50;1.30;;;;;;;16.17;62.86;98435.15;107267;1254;72654;-40
2023/06/28 23:06:55;;;;;;;2.00;1.30;;;;;;;16.15;63.08;98432.22;107436;1254;60306;-40
2023/06/28 23:09:26;;;;;;;1.80;1.30;;;;;;;16.09;63.30;98427.31;107389;1254;60519;-40
2023/06/28 23:11:53;;;;;;;2.00;1.20;;;;;;;16.07;63.73;98425.73;107298;1254;74994;-40
2023/06/28 23:14:21;;;;;;;2.90;1.20;;;;;;;16.04;63.93;98426.48;107496;1253;68078;-40
2023/06/28 23:16:48;;;;;;;2.00;1.10;;;;;;;16.02;64.30;98425.73;107319;1259;72678;-40
2023/06/28 23:19:16;;;;;;;3.20;1.60;;;;;;;16.04;64.27;98424.69;107295;1259;61904;-40
2023/06/28 23:21:46;;;;;;;2.10;1.30;;;;;;;16.09;64.45;98424.91;107448;1254;60078;-40
2023/06/28 23:24:18;;;;;;;;;;;;;;;16.12;64.57;98427.61;107457;1258;73864;-40
2023/06/28 23:26:48;;;;;;;2.40;1.30;;;;;;;16.04;64.71;98425.70;107497;1254;67599;-40
2023/06/28 23:29:17;;;;;;;1.30;1.00;;;;;;;15.99;64.92;98422.05;107460;1254;72696;-40
2023/06/28 23:31:44;;;;;;;3.40;1.80;;;;;;;15.98;65.06;98419.31;107309;1253;60505;-40
2023/06/28 23:34:17;;;;;;;1.80;1.20;;;;;;;15.96;65.09;98415.93;107429;1253;60406;-40
2023/06/28 23:36:49;;;;;;;4.80;1.30;;;;;;;15.97;65.13;98412.63;107287;1259;73847;-39
2023/06/28 23:39:18;;;;;;;4.80;1.50;;;;;;;15.99;65.21;98412.42;107382;1254;68273;-39
2023/06/28 23:41:47;;;;;;;2.80;1.60;;;;;;;15.99;65.39;98407.50;107375;1253;70721;-40
2023/06/28 23:44:15;;;;;;;1.70;1.20;;;;;;;15.98;65.81;98403.16;107318;1253;60441;-40
2023/06/28 23:46:46;;;;;;;3.30;1.30;;;;;;;15.96;66.41;98401.72;107323;1259;60274;-39
2023/06/28 23:49:14;;;;;;;4.20;1.50;;;;;;;15.92;66.99;98404.98;107479;1258;73854;-40
2023/06/28 23:51:43;;;;;;;4.90;1.50;;;;;;;15.89;67.54;98401.44;107460;1253;66289;-40
2023/06/28 23:54:11;;;;;;;3.10;1.40;;;;;;;15.88;68.22;98397.16;107443;1254;72989;-40
2023/06/28 23:56:39;;;;;;;2.10;1.20;;;;;;;15.83;68.98;98403.73;107458;1254;60335;-40
2023/06/28 23:59:06;;;;;;;3.20;1.40;;;;;;;15.77;69.62;98400.02;107341;1259;60551;-40
